Time;durP1;ratioP1;P1;durP2;ratioP2;P2;SDS_P1;SDS_P2;PMS_P1;PMS_P2;Temp;Humidity;BMP_temperature;BMP_pressure;BME280_temperature;BME280_humidity;BME280_pressure;Samples;Min_cycle;Max_cycle;Signal;HPM_P1;HPM_P2
2022/05/12 00:00:55;;;;;;;10.55;1.60;;;;;;;12.56;79.05;101258.69;4881279;29;20876;-66
2022/05/12 00:03:21;;;;;;;6.47;1.95;;;;;;;12.49;79.06;101263.56;4880212;29;20055;-65
2022/05/12 00:05:46;;;;;;;6.18;2.17;;;;;;;12.46;79.35;101270.94;4881169;29;20044;-65
2022/05/12 00:08:12;;;;;;;5.28;1.38;;;;;;;12.44;78.65;101273.69;4879888;29;20037;-65
2022/05/12 00:10:39;;;;;;;6.65;1.65;;;;;;;12.31;78.96;101276.31;4880751;29;20033;-65
2022/05/12 00:13:05;;;;;;;6.57;2.72;;;;;;;12.35;78.76;101285.88;4863910;29;20044;-65
2022/05/12 00:15:33;;;;;;;6.00;1.88;;;;;;;12.31;78.89;101286.16;4892326;29;20467;-65
2022/05/12 00:18:04;;;;;;;4.13;1.73;;;;;;;12.26;79.00;101289.13;4898818;29;20055;-65
2022/05/12 00:20:31;;;;;;;3.30;1.70;;;;;;;12.16;79.23;101294.19;4899047;29;20361;-65
2022/05/12 00:23:20;;;;;;;6.22;1.58;;;;;;;12.15;78.87;101289.81;4844389;29;20120;-66
2022/05/12 00:25:47;;;;;;;5.63;2.08;;;;;;;12.07;79.47;101305.44;4862076;29;20041;-64
2022/05/12 00:28:14;;;;;;;4.88;1.90;;;;;;;12.06;79.51;101301.06;4876459;29;20051;-65
2022/05/12 00:30:41;;;;;;;2.70;1.40;;;;;;;12.06;79.83;101306.41;4880468;29;20044;-66
2022/05/12 00:33:08;;;;;;;4.95;2.33;;;;;;;11.99;80.09;101317.56;4878855;29;20037;-66
2022/05/12 00:35:34;;;;;;;3.38;1.45;;;;;;;12.00;79.77;101319.28;4879883;29;20291;-65
2022/05/12 00:38:00;;;;;;;11.32;1.33;;;;;;;11.92;79.58;101322.44;4879415;29;20463;-65
2022/05/12 00:40:26;;;;;;;9.75;1.85;;;;;;;11.90;80.01;101324.34;4879910;29;20044;-65
2022/05/12 00:42:57;;;;;;;7.80;1.70;;;;;;;11.80;80.25;101331.19;4880413;29;20515;-64
2022/05/12 00:45:23;;;;;;;10.43;2.63;;;;;;;11.87;79.76;101328.06;4862383;29;20088;-65
2022/05/12 00:47:48;;;;;;;5.68;1.92;;;;;;;11.79;79.92;101326.75;4879642;29;20049;-65
2022/05/12 00:50:15;;;;;;;7.72;1.67;;;;;;;11.73;80.36;101340.50;4878912;29;20045;-65
2022/05/12 00:52:42;;;;;;;7.15;2.00;;;;;;;11.67;80.44;101342.59;4880441;29;20083;-65
2022/05/12 00:55:13;;;;;;;8.40;1.92;;;;;;;11.60;80.87;101345.72;4879492;29;20148;-64
2022/05/12 00:57:44;;;;;;;10.25;2.35;;;;;;;11.60;80.60;101348.41;4848074;29;20048;-65
2022/05/12 01:00:13;;;;;;;3.17;2.00;;;;;;;11.59;81.40;101352.00;4879513;29;20771;-66
2022/05/12 01:02:42;;;;;;;6.22;2.03;;;;;;;11.70;80.95;101357.59;4879943;29;20956;-65
2022/05/12 01:05:08;;;;;;;5.63;2.00;;;;;;;11.56;81.37;101361.06;4862774;29;20036;-65
2022/05/12 01:07:34;;;;;;;6.35;1.88;;;;;;;11.57;81.14;101372.59;4879344;29;20984;-66
2022/05/12 01:10:00;;;;;;;4.97;1.70;;;;;;;11.48;81.41;101366.00;4879869;29;20048;-65
2022/05/12 01:12:26;;;;;;;7.78;1.77;;;;;;;11.47;80.73;101368.75;4878713;29;20036;-65
2022/05/12 01:14:52;;;;;;;5.60;1.70;;;;;;;11.41;81.24;101372.66;4846708;29;20053;-67
2022/05/12 01:17:18;;;;;;;2.95;1.50;;;;;;;11.33;81.21;101375.75;4879262;29;20036;-67
2022/05/12 01:19:43;;;;;;;10.32;1.85;;;;;;;11.33;81.53;101375.75;4862663;29;20123;-65
2022/05/12 01:22:29;;;;;;;2.83;1.23;;;;;;;11.32;81.57;101383.88;4879015;29;20119;-65
2022/05/12 01:24:54;;;;;;;8.10;1.73;;;;;;;11.23;82.00;101376.38;4861984;29;20123;-65
2022/05/12 01:27:20;;;;;;;6.57;2.15;;;;;;;11.21;81.92;101394.31;4878794;29;20077;-66
2022/05/12 01:29:51;;;;;;;3.28;1.38;;;;;;;11.17;81.81;101390.09;4879815;29;20800;-65
2022/05/12 01:32:19;;;;;;;5.47;1.80;;;;;;;11.11;82.00;101385.97;4879153;29;20052;-65
2022/05/12 01:34:45;;;;;;;3.70;1.35;;;;;;;11.10;82.34;101385.09;4879721;29;20049;-66
2022/05/12 01:37:11;;;;;;;5.60;1.50;;;;;;;11.06;82.56;101388.03;4862406;29;20175;-65
2022/05/12 01:39:36;;;;;;;5.18;1.40;;;;;;;11.04;82.43;101392.56;4879480;29;20032;-65
2022/05/12 01:42:08;;;;;;;3.53;1.35;;;;;;;11.04;82.31;101405.91;4878651;29;21478;-65
2022/05/12 01:44:34;;;;;;;6.43;1.73;;;;;;;11.00;82.28;101389.25;4862009;29;20043;-65
2022/05/12 01:47:00;;;;;;;7.28;1.33;;;;;;;11.02;82.15;101405.16;4879127;29;20633;-65
2022/05/12 01:49:26;;;;;;;1.70;1.33;;;;;;;10.99;82.43;101403.50;4877687;29;20044;-65
2022/05/12 01:51:53;;;;;;;4.18;1.60;;;;;;;10.92;83.12;101406.63;4877926;29;20052;-65
2022/05/12 01:54:19;;;;;;;4.30;1.58;;;;;;;10.88;83.58;101412.13;4877662;29;20163;-65
2022/05/12 01:56:45;;;;;;;2.72;1.95;;;;;;;10.81;84.01;101408.06;4879003;29;20715;-66
2022/05/12 01:59:10;;;;;;;7.93;2.05;;;;;;;10.87;84.59;101425.53;4860927;29;20128;-65
2022/05/12 02:01:35;;;;;;;4.97;1.90;;;;;;;10.80;84.29;101424.19;4878074;29;20045;-65
2022/05/12 02:04:02;;;;;;;4.45;2.22;;;;;;;10.69;85.40;101430.06;4876947;29;20047;-65
2022/05/12 02:06:28;;;;;;;9.43;2.05;;;;;;;10.74;84.94;101436.03;4877932;29;20127;-65
2022/05/12 02:08:53;;;;;;;5.15;1.70;;;;;;;10.67;85.44;101436.44;4877157;29;20044;-65
2022/05/12 02:11:19;;;;;;;6.88;2.00;;;;;;;10.63;85.21;101431.28;4876426;29;20146;-65
2022/05/12 02:13:44;;;;;;;6.15;2.20;;;;;;;10.57;85.64;101436.94;4845955;29;20056;-65
2022/05/12 02:16:09;;;;;;;4.22;1.73;;;;;;;10.58;85.93;101436.00;4857222;29;20048;-66
2022/05/12 02:18:35;;;;;;;7.72;1.85;;;;;;;10.63;85.33;101433.94;4859842;29;20207;-65
2022/05/12 02:21:01;;;;;;;4.22;1.70;;;;;;;10.60;85.43;101442.13;4843296;29;20585;-65
2022/05/12 02:23:26;;;;;;;5.78;2.17;;;;;;;10.55;85.68;101451.31;4860709;29;20472;-65
2022/05/12 02:25:52;;;;;;;7.25;2.30;;;;;;;10.58;86.15;101454.66;4859798;29;20200;-65
2022/05/12 02:28:18;;;;;;;7.15;2.30;;;;;;;10.55;85.90;101452.19;4874752;29;20040;-65
2022/05/12 02:30:44;;;;;;;9.73;2.80;;;;;;;10.55;85.87;101465.50;4877691;29;20136;-65
2022/05/12 02:33:10;;;;;;;10.85;2.53;;;;;;;10.49;86.03;101465.84;4860502;29;20067;-65
2022/05/12 02:35:37;;;;;;;5.35;2.28;;;;;;;10.51;86.40;101457.75;4877159;29;20060;-65
2022/05/12 02:38:03;;;;;;;8.55;2.22;;;;;;;10.47;86.56;101462.38;4876424;29;20040;-66
2022/05/12 02:40:29;;;;;;;5.53;2.13;;;;;;;10.45;86.86;101461.59;4877121;29;20055;-65
2022/05/12 02:42:56;;;;;;;9.75;2.63;;;;;;;10.46;86.43;101466.00;4876770;29;20037;-65
2022/05/12 02:45:22;;;;;;;6.88;2.53;;;;;;;10.50;86.44;101472.03;4876043;29;20047;-65
2022/05/12 02:47:47;;;;;;;9.75;2.70;;;;;;;10.50;86.61;101475.56;4877112;29;20072;-65
2022/05/12 02:50:15;;;;;;;12.00;3.45;;;;;;;10.42;86.80;101484.91;4876754;29;20087;-65
2022/05/12 02:52:41;;;;;;;7.35;2.95;;;;;;;10.45;86.28;101482.94;4878036;29;20081;-65
2022/05/12 02:55:07;;;;;;;4.68;2.70;;;;;;;10.45;86.50;101482.09;4876523;29;20204;-65
2022/05/12 02:57:33;;;;;;;8.57;2.85;;;;;;;10.46;86.90;101484.66;4877342;29;20091;-65
2022/05/12 02:59:59;;;;;;;12.20;3.45;;;;;;;10.42;86.96;101488.41;4877646;29;20120;-66
2022/05/12 03:02:24;;;;;;;6.80;3.33;;;;;;;10.39;86.98;101483.22;4876486;29;20041;-65
2022/05/12 03:04:50;;;;;;;7.60;2.97;;;;;;;10.41;86.54;101489.38;4861020;29;20049;-65
2022/05/12 03:07:15;;;;;;;5.65;2.92;;;;;;;10.36;87.03;101494.94;4876213;29;20051;-65
2022/05/12 03:09:41;;;;;;;4.97;3.15;;;;;;;10.37;87.21;101495.78;4877554;29;20044;-64
2022/05/12 03:12:06;;;;;;;8.73;3.63;;;;;;;10.29;87.54;101496.22;4876781;29;20049;-65
2022/05/12 03:14:32;;;;;;;11.20;3.20;;;;;;;10.32;87.25;101497.84;4860590;29;20437;-65
2022/05/12 03:16:57;;;;;;;7.15;4.03;;;;;;;10.28;87.67;101493.59;4877059;29;20089;-67
2022/05/12 03:19:23;;;;;;;5.22;3.20;;;;;;;10.35;87.51;101498.56;4877071;29;20089;-65
2022/05/12 03:21:49;;;;;;;7.75;3.13;;;;;;;10.40;86.93;101502.78;4877494;29;20749;-65
2022/05/12 03:24:16;;;;;;;7.97;2.88;;;;;;;10.35;86.81;101503.03;4876413;29;20071;-65
2022/05/12 03:26:41;;;;;;;14.68;3.55;;;;;;;10.16;87.47;101504.88;4879441;29;20534;-65
2022/05/12 03:29:07;;;;;;;6.85;3.03;;;;;;;10.19;87.62;101516.25;4880206;29;20052;-66
2022/05/12 03:31:32;;;;;;;10.50;3.80;;;;;;;10.12;87.14;101507.69;4879951;29;20040;-66
2022/05/12 03:34:00;;;;;;;12.10;4.28;;;;;;;10.03;87.91;101510.81;4880542;29;20050;-66
2022/05/12 03:36:26;;;;;;;3.78;2.60;;;;;;;9.94;88.52;101518.41;4861894;29;20509;-65
2022/05/12 03:38:51;;;;;;;6.28;3.58;;;;;;;10.04;88.10;101515.22;4880004;29;20854;-65
2022/05/12 03:41:16;;;;;;;12.07;3.60;;;;;;;9.99;88.08;101517.25;4873580;29;20128;-65
2022/05/12 03:46:27;;;;;;;10.57;3.55;;;;;;;10.08;88.46;101519.44;4860380;29;20040;-65
2022/05/12 03:48:52;;;;;;;10.20;3.78;;;;;;;10.08;88.19;101529.22;4860684;29;20036;-65
2022/05/12 03:51:17;;;;;;;15.52;5.07;;;;;;;10.11;88.94;101534.41;4860894;29;20099;-65
2022/05/12 03:53:43;;;;;;;10.88;5.05;;;;;;;10.08;88.53;101535.41;4869500;29;20028;-65
2022/05/12 03:56:09;;;;;;;9.98;6.00;;;;;;;10.12;88.90;101542.31;4862462;29;20850;-65
2022/05/12 03:58:36;;;;;;;9.40;4.32;;;;;;;10.12;88.80;101539.66;4862598;29;20056;-67
2022/05/12 04:01:03;;;;;;;10.75;4.28;;;;;;;10.20;88.70;101541.09;4879102;29;20839;-67
2022/05/12 04:03:29;;;;;;;7.10;4.43;;;;;;;10.17;89.22;101546.56;4880001;29;21028;-66
2022/05/12 04:05:56;;;;;;;11.82;5.65;;;;;;;10.23;89.10;101546.25;4879811;29;20040;-65
2022/05/12 04:08:22;;;;;;;12.93;6.50;;;;;;;10.30;88.66;101553.06;4879794;29;20041;-65
2022/05/12 04:10:49;;;;;;;17.60;6.38;;;;;;;10.43;88.14;101554.13;4880883;29;20877;-66
2022/05/12 04:13:16;;;;;;;17.02;5.55;;;;;;;10.50;88.09;101562.69;4879967;29;20189;-66
2022/05/12 04:15:41;;;;;;;10.77;5.28;;;;;;;10.52;87.40;101556.31;4881429;29;20079;-66
2022/05/12 04:18:07;;;;;;;9.48;4.90;;;;;;;10.60;87.40;101562.13;4880179;29;20148;-65
2022/05/12 04:20:35;;;;;;;14.18;6.03;;;;;;;10.66;86.82;101566.28;4880398;29;20112;-66
2022/05/12 04:23:00;;;;;;;9.85;5.03;;;;;;;10.59;86.73;101565.75;4863392;29;20048;-65
2022/05/12 04:25:26;;;;;;;11.30;5.57;;;;;;;10.66;86.80;101568.94;4879762;29;20060;-66
2022/05/12 04:27:52;;;;;;;10.95;5.75;;;;;;;10.74;86.50;101572.06;4862611;29;20040;-66
2022/05/12 04:30:20;;;;;;;10.07;5.50;;;;;;;10.79;86.18;101575.38;4879606;29;20044;-66
2022/05/12 04:32:45;;;;;;;7.60;4.80;;;;;;;10.76;86.23;101580.00;4880346;29;20045;-66
2022/05/12 04:35:14;;;;;;;11.45;5.32;;;;;;;10.96;85.89;101582.50;4862974;29;20075;-66
2022/05/12 04:37:52;;;;;;;8.38;4.85;;;;;;;11.12;85.38;101575.38;4862303;29;20486;-66
2022/05/12 04:40:24;;;;;;;9.85;4.32;;;;;;;11.19;84.84;101583.03;4879896;29;20040;-66
2022/05/12 04:42:52;;;;;;;9.07;4.95;;;;;;;11.57;83.40;101580.97;4880192;29;20044;-65
2022/05/12 04:45:20;;;;;;;12.25;5.00;;;;;;;12.36;81.32;101591.63;4861908;29;20044;-64
2022/05/12 04:47:46;;;;;;;7.80;4.22;;;;;;;13.73;75.78;101593.84;4880437;29;20439;-65
2022/05/12 04:50:16;;;;;;;9.02;4.13;;;;;;;14.61;71.65;101590.72;4879608;29;20063;-65
2022/05/12 04:52:42;;;;;;;7.22;3.63;;;;;;;14.90;70.14;101594.94;4867872;29;20742;-65
2022/05/12 04:55:07;;;;;;;5.32;3.50;;;;;;;15.67;68.46;101594.94;4861104;29;20072;-65
2022/05/12 04:57:41;;;;;;;5.32;2.95;;;;;;;16.14;66.19;101601.31;4861375;29;20405;-66
2022/05/12 05:00:11;;;;;;;8.32;3.17;;;;;;;16.02;66.40;101592.34;4860697;29;20184;-66
2022/05/12 05:02:36;;;;;;;7.57;3.63;;;;;;;15.17;68.83;101599.38;4864325;29;20547;-65
2022/05/12 05:05:04;;;;;;;5.18;2.60;;;;;;;14.69;70.40;101613.41;4862649;29;20089;-66
2022/05/12 05:07:30;;;;;;;6.72;3.67;;;;;;;15.67;68.28;101605.69;4867068;29;20823;-66
2022/05/12 05:09:55;;;;;;;6.35;2.92;;;;;;;16.27;66.12;101600.28;4859551;29;20060;-66
2022/05/12 05:12:21;;;;;;;6.57;3.58;;;;;;;15.88;66.14;101601.41;4875220;29;20979;-66
2022/05/12 05:14:46;;;;;;;7.75;3.08;;;;;;;16.25;65.35;101604.06;4877798;29;20036;-66
2022/05/12 05:17:11;;;;;;;4.07;2.78;;;;;;;15.25;68.38;101624.72;4860946;29;20052;-66
2022/05/12 05:19:37;;;;;;;7.85;3.40;;;;;;;15.84;67.52;101620.59;4878186;29;20041;-65
2022/05/12 05:22:02;;;;;;;6.18;3.00;;;;;;;16.10;66.29;101626.72;4877082;29;20830;-65
2022/05/12 05:24:29;;;;;;;8.70;2.95;;;;;;;16.72;64.43;101627.44;4876679;29;20793;-65
2022/05/12 05:26:54;;;;;;;6.20;3.13;;;;;;;15.70;66.71;101627.81;4874415;29;20813;-65
2022/05/12 05:29:20;;;;;;;5.70;3.05;;;;;;;16.15;65.98;101630.78;4874172;29;20041;-65
2022/05/12 05:31:45;;;;;;;6.93;2.70;;;;;;;16.37;66.01;101634.59;4872031;29;20044;-65
2022/05/12 05:34:11;;;;;;;10.27;3.55;;;;;;;16.13;66.12;101643.53;4870949;29;20554;-65
2022/05/12 05:36:39;;;;;;;7.53;3.10;;;;;;;16.12;66.38;101641.81;4869723;29;20043;-66
2022/05/12 05:39:07;;;;;;;3.63;3.13;;;;;;;16.92;64.28;101641.16;4876358;29;20048;-65
2022/05/12 05:41:32;;;;;;;6.72;3.80;;;;;;;17.01;64.16;101646.69;4876811;29;20813;-65
2022/05/12 05:43:58;;;;;;;5.53;3.40;;;;;;;16.38;65.62;101641.69;4877077;29;20048;-65
2022/05/12 05:46:24;;;;;;;11.75;4.20;;;;;;;16.72;64.61;101658.88;4876969;29;20414;-67
2022/05/12 05:48:51;;;;;;;5.80;3.50;;;;;;;17.60;62.54;101659.16;4861740;29;20069;-68
2022/05/12 05:54:01;;;;;;;6.40;3.92;;;;;;;17.51;63.02;101676.91;4877290;29;20076;-67
2022/05/12 05:56:27;;;;;;;10.48;4.40;;;;;;;17.11;63.30;101672.94;4860173;29;20044;-67
2022/05/12 05:58:52;;;;;;;8.73;4.47;;;;;;;17.67;61.59;101687.38;4876992;29;20044;-67
2022/05/12 06:01:18;;;;;;;8.60;4.38;;;;;;;17.20;62.20;101686.56;4876732;29;20036;-66
2022/05/12 06:03:43;;;;;;;6.55;3.95;;;;;;;18.02;62.26;101687.28;4876790;29;20045;-67
2022/05/12 06:06:09;;;;;;;9.35;4.05;;;;;;;16.64;64.52;101689.06;4877504;29;20048;-68
2022/05/12 06:08:34;;;;;;;7.65;3.40;;;;;;;17.69;61.52;101704.28;4877764;29;20742;-67
2022/05/12 06:11:04;;;;;;;5.70;3.28;;;;;;;17.61;62.40;101704.88;4877502;29;20048;-67
2022/05/12 06:13:33;;;;;;;7.38;3.97;;;;;;;17.53;61.63;101709.19;4877505;29;20076;-67
2022/05/12 06:16:01;;;;;;;7.38;3.45;;;;;;;18.20;60.66;101698.38;4876944;29;20051;-67
2022/05/12 06:18:27;;;;;;;7.60;3.75;;;;;;;17.57;61.72;101707.94;4859684;29;20040;-67
2022/05/12 06:20:53;;;;;;;8.07;3.40;;;;;;;17.95;61.28;101714.88;4876634;29;20108;-68
2022/05/12 06:23:18;;;;;;;6.40;4.15;;;;;;;18.15;61.35;101718.66;4857098;29;20132;-67
2022/05/12 06:25:44;;;;;;;10.15;3.80;;;;;;;18.14;60.36;101725.88;4872934;29;20059;-67
2022/05/12 06:28:10;;;;;;;7.82;3.85;;;;;;;19.14;57.48;101713.06;4874020;29;20052;-67
2022/05/12 06:30:36;;;;;;;9.18;3.90;;;;;;;18.22;59.54;101712.59;4878191;29;20071;-66
2022/05/12 06:33:03;;;;;;;9.77;3.78;;;;;;;18.04;60.60;101725.78;4876796;29;20046;-65
2022/05/12 06:35:28;;;;;;;7.93;3.92;;;;;;;18.66;58.27;101720.72;4876980;29;20051;-66
2022/05/12 06:37:54;;;;;;;11.43;5.03;;;;;;;19.55;57.20;101727.56;4859940;29;20040;-65
2022/05/12 06:40:21;;;;;;;6.00;3.40;;;;;;;18.31;58.21;101740.72;4876179;29;20045;-66
2022/05/12 06:42:47;;;;;;;10.90;3.70;;;;;;;18.34;58.76;101738.63;4860264;29;20068;-66
2022/05/12 06:45:18;;;;;;;9.40;3.38;;;;;;;18.63;58.27;101738.94;4875848;29;20055;-66
2022/05/12 06:47:49;;;;;;;8.93;3.55;;;;;;;19.51;57.61;101736.94;4875940;29;20041;-66
2022/05/12 06:50:17;;;;;;;7.90;3.58;;;;;;;18.20;58.19;101744.28;4872351;29;20544;-66
2022/05/12 06:52:43;;;;;;;6.70;3.50;;;;;;;18.34;58.54;101735.91;4877160;29;20095;-66
2022/05/12 06:55:09;;;;;;;4.97;3.03;;;;;;;18.99;56.29;101746.81;4875802;29;20140;-66
2022/05/12 06:57:35;;;;;;;8.48;3.55;;;;;;;18.99;56.04;101746.81;4876326;29;20048;-66
2022/05/12 07:00:00;;;;;;;9.52;3.47;;;;;;;18.17;57.98;101759.88;4875918;29;20041;-66
2022/05/12 07:02:27;;;;;;;7.47;3.63;;;;;;;18.19;58.40;101764.19;4860816;29;20043;-66
2022/05/12 07:04:53;;;;;;;8.70;4.18;;;;;;;18.56;57.51;101759.31;4862191;29;20622;-66
2022/05/12 07:07:20;;;;;;;5.90;3.58;;;;;;;19.09;56.22;101755.88;4878236;29;20056;-67
2022/05/12 07:09:46;;;;;;;7.80;3.13;;;;;;;19.16;58.37;101748.94;4878929;29;20557;-66
2022/05/12 07:12:13;;;;;;;9.73;2.97;;;;;;;19.66;55.38;101750.00;4878595;29;20050;-66
2022/05/12 07:14:39;;;;;;;6.65;2.95;;;;;;;19.41;55.16;101751.25;4880532;29;20041;-65
2022/05/12 07:17:05;;;;;;;9.70;4.53;;;;;;;19.08;55.04;101754.16;4862908;29;20047;-65
2022/05/12 07:19:33;;;;;;;6.30;3.70;;;;;;;18.88;55.47;101755.84;4879992;29;20048;-66
2022/05/12 07:27:27;;;;;;;8.07;3.20;;;;;;;18.98;53.59;101766.72;4862437;29;20888;-66
2022/05/12 07:29:53;;;;;;;7.07;3.28;;;;;;;18.20;54.72;101776.69;4874103;29;20052;-66
2022/05/12 07:32:18;;;;;;;8.80;3.30;;;;;;;19.49;53.43;101761.41;4879578;29;20040;-66
2022/05/12 07:34:43;;;;;;;5.20;3.45;;;;;;;19.68;54.24;101768.84;4874358;29;20044;-66
2022/05/12 07:37:09;;;;;;;7.70;3.80;;;;;;;19.48;53.49;101769.66;4876622;29;20048;-67
2022/05/12 07:39:36;;;;;;;7.75;4.05;;;;;;;19.18;56.43;101773.13;4880109;29;20037;-66
2022/05/12 07:42:04;;;;;;;6.35;3.15;;;;;;;19.53;53.05;101778.22;4879729;29;20040;-66
2022/05/12 07:44:32;;;;;;;7.35;3.38;;;;;;;18.80;55.22;101772.66;4876604;29;20380;-67
2022/05/12 07:47:00;;;;;;;6.70;3.38;;;;;;;19.49;53.62;101783.06;4876434;29;20040;-66
2022/05/12 07:49:33;;;;;;;7.57;2.78;;;;;;;19.62;52.88;101777.47;4878987;29;20044;-66
2022/05/12 07:52:00;;;;;;;8.05;3.35;;;;;;;19.79;52.53;101770.59;4878262;29;20147;-66
2022/05/12 07:54:26;;;;;;;6.93;3.70;;;;;;;19.29;53.98;101787.47;4877240;29;20119;-66
2022/05/12 07:56:51;;;;;;;10.38;4.13;;;;;;;19.69;53.50;101785.94;4877701;29;20036;-66
2022/05/12 07:59:17;;;;;;;9.77;2.90;;;;;;;19.58;52.30;101789.53;4860608;29;20048;-66
2022/05/12 08:01:43;;;;;;;4.72;2.67;;;;;;;19.67;51.78;101797.72;4879844;29;20809;-66
2022/05/12 08:04:08;;;;;;;7.45;3.78;;;;;;;19.75;51.47;101788.94;4859480;29;20288;-65
2022/05/12 08:06:34;;;;;;;7.28;3.97;;;;;;;19.28;53.33;101796.59;4864922;29;20044;-65
2022/05/12 08:08:59;;;;;;;8.15;3.00;;;;;;;20.09;50.73;101800.38;4875371;29;20128;-66
2022/05/12 08:11:25;;;;;;;8.57;3.40;;;;;;;20.28;51.44;101807.75;4875243;29;20402;-66
2022/05/12 08:13:51;;;;;;;5.82;3.10;;;;;;;18.70;52.68;101814.09;4872007;29;20746;-66
2022/05/12 08:16:19;;;;;;;6.45;3.33;;;;;;;18.57;54.98;101811.50;4874199;29;20061;-67
2022/05/12 08:18:47;;;;;;;5.20;3.15;;;;;;;19.44;51.50;101812.34;4878599;29;20522;-66
2022/05/12 08:21:13;;;;;;;7.50;3.40;;;;;;;19.53;52.60;101805.28;4877174;29;20032;-66
2022/05/12 08:23:39;;;;;;;7.10;3.22;;;;;;;19.34;53.42;101809.56;4860490;29;20155;-67
2022/05/12 08:26:05;;;;;;;8.25;3.25;;;;;;;18.53;53.40;101823.56;4877296;29;20047;-66
2022/05/12 08:28:31;;;;;;;5.50;3.20;;;;;;;18.95;53.15;101823.75;4878257;29;20052;-67
2022/05/12 08:30:56;;;;;;;7.47;3.75;;;;;;;19.13;53.25;101820.38;4878872;29;20037;-67
2022/05/12 08:33:23;;;;;;;6.28;2.90;;;;;;;20.58;50.06;101820.44;4878762;29;20069;-67
2022/05/12 08:35:49;;;;;;;7.75;2.90;;;;;;;20.19;51.35;101816.69;4879050;29;20630;-67
2022/05/12 08:38:17;;;;;;;6.15;3.20;;;;;;;19.48;49.56;101811.13;4861163;29;20036;-67
2022/05/12 08:41:05;;;;;;;6.88;3.33;;;;;;;19.53;49.34;101816.09;4879542;29;20144;-67
2022/05/12 08:43:50;;;;;;;6.72;3.58;;;;;;;19.65;48.94;101820.50;4854330;29;20147;-65
2022/05/12 08:46:20;;;;;;;6.53;3.53;;;;;;;19.64;49.92;101814.25;4859978;29;20059;-67
2022/05/12 08:48:47;;;;;;;12.13;3.45;;;;;;;19.75;49.10;101813.31;4878508;29;20688;-67
2022/05/12 08:51:21;;;;;;;9.45;3.05;;;;;;;18.87;49.12;101827.06;4855230;29;20048;-66
2022/05/12 08:54:00;;;;;;;5.65;2.60;;;;;;;19.92;47.29;101814.53;4874206;29;20044;-66
2022/05/12 08:56:26;;;;;;;5.25;2.50;;;;;;;20.21;49.48;101814.69;4859457;29;20056;-66
2022/05/12 08:58:57;;;;;;;3.80;2.10;;;;;;;20.12;46.96;101823.63;4867374;29;20479;-67
2022/05/12 09:01:36;;;;;;;7.75;3.35;;;;;;;18.40;49.37;101826.38;4877867;29;20048;-66
2022/05/12 09:04:14;;;;;;;3.80;2.95;;;;;;;19.23;47.66;101825.88;4875982;29;20546;-66
2022/05/12 09:07:22;;;;;;;4.25;2.58;;;;;;;19.88;47.58;101818.50;4874585;29;20055;-66
2022/05/12 09:09:54;;;;;;;5.35;2.65;;;;;;;20.05;45.77;101827.88;4858216;29;20152;-67
2022/05/12 09:12:51;;;;;;;5.78;2.70;;;;;;;17.70;48.71;101840.88;4875779;29;20107;-67
2022/05/12 09:15:25;;;;;;;7.45;2.50;;;;;;;19.28;47.75;101834.44;4859913;29;20048;-66
2022/05/12 09:17:58;;;;;;;7.00;3.00;;;;;;;19.83;46.63;101823.44;4860493;29;20044;-67
2022/05/12 09:20:26;;;;;;;5.22;2.75;;;;;;;19.13;47.71;101827.63;4875335;29;20075;-66
2022/05/12 09:22:52;;;;;;;8.02;3.13;;;;;;;18.88;48.84;101845.88;4878121;29;20051;-66
2022/05/12 09:25:36;;;;;;;7.32;2.65;;;;;;;19.65;47.68;101837.59;4860253;29;20028;-66
2022/05/12 09:28:17;;;;;;;10.50;2.63;;;;;;;19.44;46.79;101828.59;4860881;29;20049;-66
2022/05/12 09:30:44;;;;;;;4.03;2.35;;;;;;;18.55;47.86;101849.44;4860977;29;20116;-66
2022/05/12 09:33:09;;;;;;;3.80;2.38;;;;;;;19.55;46.21;101841.19;4878401;29;20044;-66
2022/05/12 09:35:35;;;;;;;4.68;2.53;;;;;;;18.99;47.27;101844.13;4879002;29;20043;-67
2022/05/12 09:38:19;;;;;;;10.07;3.22;;;;;;;18.15;47.80;101851.78;4861759;29;20063;-66
2022/05/12 09:40:45;;;;;;;4.50;2.58;;;;;;;19.32;45.11;101844.00;4879132;29;20139;-66
2022/05/12 09:43:26;;;;;;;3.28;2.13;;;;;;;20.09;45.12;101826.63;4877728;29;20115;-67
2022/05/12 09:46:29;;;;;;;4.63;3.00;;;;;;;20.15;43.67;101828.78;4878007;29;20037;-66
2022/05/12 09:49:14;;;;;;;;;;;;;;;21.22;43.27;101827.22;4868900;29;20045;-67
2022/05/12 09:51:39;;;;;;;4.53;2.22;;;;;;;20.83;43.22;101827.16;4878848;29;20430;-67
2022/05/12 09:54:23;;;;;;;4.85;1.77;;;;;;;20.28;41.36;101814.97;4876845;29;20056;-66
2022/05/12 09:57:10;;;;;;;5.10;1.92;;;;;;;20.77;40.49;101825.00;4877838;29;20067;-66
2022/05/12 09:59:37;;;;;;;3.50;2.30;;;;;;;20.34;41.63;101818.03;4876996;29;20052;-66
2022/05/12 10:07:53;;;;;;;5.35;2.15;;;;;;;20.38;40.66;101824.00;4859521;29;20323;-66
2022/05/12 10:08:07;;;;;;;4.50;2.40;;;;;;;19.43;43.30;101821.47;4876570;29;20064;-67
2022/05/12 10:10:34;;;;;;;3.25;1.58;;;;;;;20.04;42.50;101816.19;4877021;29;20518;-66
2022/05/12 10:13:13;;;;;;;2.72;1.50;;;;;;;20.42;41.53;101814.63;4877023;29;20058;-67
2022/05/12 10:15:39;;;;;;;3.92;2.17;;;;;;;20.10;41.12;101812.06;4877341;29;20046;-67
2022/05/12 10:18:15;;;;;;;3.10;1.83;;;;;;;19.26;42.49;101822.88;4876692;29;20048;-66
2022/05/12 10:20:50;;;;;;;1.63;1.40;;;;;;;19.59;42.05;101823.72;4876717;29;20071;-66
2022/05/12 10:23:41;;;;;;;2.53;1.60;;;;;;;20.59;42.07;101824.84;4876416;29;20068;-66
2022/05/12 10:26:16;;;;;;;5.00;2.05;;;;;;;21.09;41.66;101815.81;4876679;29;20046;-67
2022/05/12 10:28:52;;;;;;;3.20;1.77;;;;;;;20.79;40.05;101827.59;4859462;29;20112;-66
2022/05/12 10:31:36;;;;;;;3.03;2.10;;;;;;;20.89;39.80;101833.91;4857424;29;20053;-66
2022/05/12 10:34:41;;;;;;;5.65;2.08;;;;;;;20.87;39.40;101828.59;4841410;29;20068;-67
2022/05/12 10:37:36;;;;;;;5.20;1.80;;;;;;;21.10;38.95;101810.22;4846300;29;20068;-66
2022/05/12 10:40:29;;;;;;;2.65;1.75;;;;;;;21.19;38.30;101816.66;4845053;29;20076;-67
2022/05/12 10:43:12;;;;;;;2.05;1.70;;;;;;;21.17;39.41;101816.78;4862095;29;20052;-66
2022/05/12 10:46:04;;;;;;;3.05;1.48;;;;;;;20.85;38.16;101816.19;4862601;29;20068;-66
2022/05/12 10:48:44;;;;;;;4.55;2.00;;;;;;;21.04;39.94;101818.09;4861138;29;20068;-67
2022/05/12 10:51:26;;;;;;;1.63;1.52;;;;;;;21.61;36.49;101822.66;4861044;29;20128;-67
2022/05/12 10:54:10;;;;;;;;;;;;;;;21.73;37.09;101818.75;4862205;29;20059;-66
2022/05/12 10:57:03;;;;;;;3.25;1.80;;;;;;;20.89;37.31;101831.19;4862560;29;20089;-66
2022/05/12 10:59:35;;;;;;;3.15;1.70;;;;;;;21.25;39.12;101823.38;4876763;29;20076;-66
2022/05/12 11:02:21;;;;;;;4.13;1.63;;;;;;;20.82;36.86;101817.31;4862987;29;20072;-67
2022/05/12 11:04:55;;;;;;;5.40;1.58;;;;;;;21.70;35.70;101815.50;4880627;29;20155;-66
2022/05/12 11:07:42;;;;;;;5.53;1.67;;;;;;;21.08;37.05;101811.34;4887459;29;20862;-67
2022/05/12 11:10:27;;;;;;;3.50;1.50;;;;;;;20.12;36.25;101816.34;4889449;29;20041;-66
2022/05/12 11:12:56;;;;;;;2.80;1.52;;;;;;;20.42;37.40;101815.47;4882311;29;20039;-66
2022/05/12 11:15:30;;;;;;;2.78;1.73;;;;;;;19.43;37.75;101818.75;4898991;29;20071;-66
2022/05/12 11:18:00;;;;;;;2.28;1.20;;;;;;;20.33;36.37;101821.75;4858539;29;20046;-66
2022/05/12 11:20:36;;;;;;;1.20;1.10;;;;;;;21.07;39.88;101806.94;4861536;29;20041;-66
2022/05/12 11:23:18;;;;;;;2.58;1.20;;;;;;;20.42;35.96;101809.19;4845291;29;20041;-66
2022/05/12 11:25:50;;;;;;;4.78;1.55;;;;;;;20.59;36.99;101816.72;4862512;29;20124;-66
2022/05/12 11:31:41;;;;;;;1.55;1.08;;;;;;;20.63;34.54;101818.16;4862193;29;20907;-66
2022/05/12 11:34:09;;;;;;;1.75;1.00;;;;;;;21.01;36.18;101824.63;4860414;29;20037;-66
2022/05/12 11:36:42;;;;;;;1.58;1.10;;;;;;;20.89;35.67;101821.19;4861610;29;20037;-67
2022/05/12 11:39:51;;;;;;;1.55;1.23;;;;;;;20.69;34.70;101817.59;4860919;29;20136;-66
2022/05/12 11:42:22;;;;;;;2.75;1.65;;;;;;;20.84;36.11;101812.63;4859434;29;20049;-66
2022/05/12 11:45:03;;;;;;;2.53;1.40;;;;;;;21.08;35.83;101814.06;4859889;29;20090;-66
2022/05/12 11:47:48;;;;;;;4.22;2.00;;;;;;;21.07;36.91;101807.78;4862605;29;20116;-66
2022/05/12 11:50:24;;;;;;;3.83;1.55;;;;;;;20.92;35.45;101810.06;4877806;29;20740;-66
2022/05/12 11:53:12;;;;;;;2.33;1.20;;;;;;;21.13;35.76;101803.66;4876538;29;20063;-67